createdAt,value
2022-10-18T00:00:39.828Z,0
2022-10-18T00:01:56.018Z,0
2022-10-18T00:03:12.215Z,0
2022-10-18T00:04:28.157Z,0
2022-10-18T00:05:44.344Z,0
2022-10-18T00:07:00.773Z,0
2022-10-18T00:08:16.963Z,0
2022-10-18T00:09:33.146Z,0
2022-10-18T00:10:49.341Z,0
2022-10-18T00:12:05.532Z,0
2022-10-18T00:13:21.721Z,0
2022-10-18T00:14:36.925Z,0
2022-10-18T00:15:53.107Z,0
2022-10-18T00:17:09.301Z,0
2022-10-18T00:18:25.490Z,0
2022-10-18T00:19:41.693Z,0
2022-10-18T00:20:57.880Z,0
2022-10-18T00:22:14.069Z,0
2022-10-18T00:23:30.241Z,0
2022-10-18T00:24:46.445Z,0
2022-10-18T00:26:02.623Z,0
2022-10-18T00:27:18.812Z,0
2022-10-18T00:28:34.759Z,0
2022-10-18T00:29:51.203Z,0
2022-10-18T00:31:06.144Z,0
2022-10-18T00:32:22.582Z,0
2022-10-18T00:33:38.775Z,0
2022-10-18T00:34:54.973Z,0
2022-10-18T00:36:11.152Z,0
2022-10-18T00:37:27.340Z,0
2022-10-18T00:38:43.543Z,0
2022-10-18T00:39:59.717Z,0
2022-10-18T00:41:15.920Z,0
2022-10-18T00:42:32.098Z,0
2022-10-18T00:43:48.044Z,0
2022-10-18T00:45:04.487Z,0
2022-10-18T00:46:20.669Z,0
2022-10-18T00:47:35.625Z,0
2022-10-18T00:48:52.072Z,0
2022-10-18T00:50:08.011Z,0
2022-10-18T00:51:24.439Z,0
2022-10-18T00:52:40.623Z,0
2022-10-18T00:53:56.814Z,0
2022-10-18T00:55:13.003Z,0
2022-10-18T00:56:29.206Z,0
2022-10-18T00:57:45.144Z,0
2022-10-18T00:59:01.572Z,0
2022-10-18T01:00:17.771Z,0
2022-10-18T01:01:33.951Z,0
2022-10-18T01:02:50.133Z,0
2022-10-18T01:04:05.340Z,0
2022-10-18T01:05:21.286Z,0
2022-10-18T01:06:37.728Z,0
2022-10-18T01:07:53.916Z,0
2022-10-18T01:09:10.107Z,0
2022-10-18T01:10:26.294Z,0
2022-10-18T01:11:42.478Z,0
2022-10-18T01:12:58.668Z,0
2022-10-18T01:14:14.867Z,0
2022-10-18T01:15:31.046Z,0
2022-10-18T01:16:47.236Z,0
2022-10-18T01:18:03.160Z,0
2022-10-18T01:19:19.358Z,0
2022-10-18T01:20:35.800Z,0
2022-10-18T01:21:51.007Z,0
2022-10-18T01:23:07.197Z,0
2022-10-18T01:24:23.388Z,0
2022-10-18T01:25:39.317Z,0
2022-10-18T01:26:55.763Z,0
2022-10-18T01:28:11.698Z,0
2022-10-18T01:29:28.133Z,0
2022-10-18T01:30:44.341Z,0
2022-10-18T01:32:00.514Z,0
2022-10-18T01:33:16.712Z,0
2022-10-18T01:34:32.644Z,0
2022-10-18T01:35:48.832Z,0
2022-10-18T01:37:05.014Z,0
2022-10-18T01:38:20.488Z,0
2022-10-18T01:39:36.672Z,0
2022-10-18T01:40:52.853Z,0
2022-10-18T01:42:09.056Z,0
2022-10-18T01:43:24.979Z,0
2022-10-18T01:44:41.162Z,0
2022-10-18T01:45:57.621Z,0
2022-10-18T01:47:13.800Z,0
2022-10-18T01:48:29.725Z,0
2022-10-18T01:49:46.182Z,0
2022-10-18T01:51:02.376Z,0
2022-10-18T01:52:18.564Z,0
2022-10-18T01:53:34.750Z,0
2022-10-18T01:54:49.957Z,0
2022-10-18T01:56:06.148Z,0
2022-10-18T01:57:22.335Z,0
2022-10-18T01:58:38.253Z,0
2022-10-18T01:59:54.451Z,0
2022-10-18T02:01:10.897Z,0
2022-10-18T02:02:27.095Z,0
2022-10-18T02:03:43.275Z,0
2022-10-18T02:04:59.457Z,0
2022-10-18T02:06:15.662Z,0
2022-10-18T02:07:31.852Z,0
2022-10-18T02:08:48.038Z,0
2022-10-18T02:10:04.218Z,0
2022-10-18T02:11:19.419Z,0
2022-10-18T02:12:35.616Z,0
2022-10-18T02:13:51.548Z,0
2022-10-18T02:15:08.004Z,0
2022-10-18T02:16:23.922Z,0
2022-10-18T02:17:40.370Z,0
2022-10-18T02:18:56.554Z,0
2022-10-18T02:20:12.758Z,0
2022-10-18T02:21:28.933Z,0
2022-10-18T02:22:45.140Z,0
2022-10-18T02:24:01.047Z,0
2022-10-18T02:25:17.231Z,0
2022-10-18T02:26:33.690Z,0
2022-10-18T02:27:48.910Z,0
2022-10-18T02:29:04.828Z,0
2022-10-18T02:30:21.286Z,0
2022-10-18T02:31:37.472Z,0
2022-10-18T02:32:53.655Z,0
2022-10-18T02:34:09.850Z,0
2022-10-18T02:35:26.035Z,0
2022-10-18T02:36:42.224Z,0
2022-10-18T02:37:58.420Z,0
2022-10-18T02:39:14.604Z,0
2022-10-18T02:40:30.798Z,0
2022-10-18T02:41:46.971Z,0
2022-10-18T02:43:03.172Z,0
2022-10-18T02:44:18.088Z,0
2022-10-18T02:45:34.567Z,0
2022-10-18T02:46:50.478Z,0
2022-10-18T02:48:06.936Z,0
2022-10-18T02:49:23.125Z,0
2022-10-18T02:50:39.051Z,0
2022-10-18T02:51:55.231Z,0
2022-10-18T02:53:11.691Z,0
2022-10-18T02:54:27.886Z,0
2022-10-18T02:55:44.064Z,0
2022-10-18T02:56:59.983Z,0
2022-10-18T02:58:16.459Z,0
2022-10-18T02:59:32.641Z,0
2022-10-18T03:00:47.846Z,0
2022-10-18T03:02:03.765Z,0
2022-10-18T03:03:20.222Z,0
2022-10-18T03:04:36.405Z,0
2022-10-18T03:05:52.609Z,0
2022-10-18T03:07:08.502Z,0
2022-10-18T03:08:24.978Z,0
2022-10-18T03:09:41.172Z,0
2022-10-18T03:10:57.086Z,0
2022-10-18T03:12:13.273Z,0
2022-10-18T03:13:29.734Z,0
2022-10-18T03:14:45.920Z,0
2022-10-18T03:16:01.825Z,0
2022-10-18T03:17:17.328Z,0
2022-10-18T03:18:33.519Z,0
2022-10-18T03:19:49.410Z,0
2022-10-18T03:21:05.877Z,0
2022-10-18T03:22:22.078Z,0
2022-10-18T03:23:38.259Z,0
2022-10-18T03:24:54.445Z,0
2022-10-18T03:26:10.642Z,0
2022-10-18T03:27:26.829Z,0
2022-10-18T03:28:42.738Z,0
2022-10-18T03:29:58.931Z,0
2022-10-18T03:31:15.117Z,0
2022-10-18T03:32:31.578Z,0
2022-10-18T03:33:46.800Z,0
2022-10-18T03:35:02.978Z,0
2022-10-18T03:36:19.161Z,0
2022-10-18T03:37:35.361Z,0
2022-10-18T03:38:51.548Z,0
2022-10-18T03:40:07.742Z,0
2022-10-18T03:41:23.935Z,0
2022-10-18T03:42:40.119Z,0
2022-10-18T03:43:56.307Z,0
2022-10-18T03:45:12.201Z,0
2022-10-18T03:46:28.673Z,0
2022-10-18T03:47:44.869Z,0
2022-10-18T03:49:01.062Z,0
2022-10-18T03:50:16.265Z,0
2022-10-18T03:51:32.446Z,0
2022-10-18T03:52:48.641Z,0
2022-10-18T03:54:04.537Z,0
2022-10-18T03:55:21.023Z,0
2022-10-18T03:56:36.232Z,0
2022-10-18T03:57:52.426Z,0
2022-10-18T03:59:08.606Z,0
2022-10-18T04:00:24.512Z,0
2022-10-18T04:01:40.983Z,0
2022-10-18T04:02:57.173Z,0
2022-10-18T04:04:13.362Z,0
2022-10-18T04:05:29.252Z,0
2022-10-18T04:06:45.452Z,0
2022-10-18T04:08:01.635Z,0
2022-10-18T04:09:18.130Z,0
2022-10-18T04:10:34.313Z,0
2022-10-18T04:11:50.201Z,0
2022-10-18T04:13:05.715Z,0
2022-10-18T04:14:21.887Z,0
2022-10-18T04:15:37.790Z,0
2022-10-18T04:16:54.268Z,0
2022-10-18T04:18:10.461Z,0
2022-10-18T04:19:26.656Z,0
2022-10-18T04:20:42.846Z,0
2022-10-18T04:21:59.020Z,0
2022-10-18T04:23:14.920Z,0
2022-10-18T04:24:31.402Z,0
2022-10-18T04:25:47.603Z,0
2022-10-18T04:27:03.781Z,0
2022-10-18T04:28:19.963Z,0
2022-10-18T04:29:35.174Z,0
2022-10-18T04:30:51.058Z,0
2022-10-18T04:32:07.252Z,0
2022-10-18T04:33:23.731Z,0
2022-10-18T04:34:39.927Z,0
2022-10-18T04:35:55.819Z,0
2022-10-18T04:37:12.001Z,0
2022-10-18T04:38:28.187Z,0
2022-10-18T04:39:44.674Z,0
2022-10-18T04:41:00.858Z,0
2022-10-18T04:42:17.045Z,0
2022-10-18T04:43:32.929Z,0
2022-10-18T04:44:49.119Z,0
2022-10-18T04:46:04.334Z,0
2022-10-18T04:47:20.814Z,0
2022-10-18T04:48:36.994Z,0
2022-10-18T04:49:53.186Z,0
2022-10-18T04:51:09.079Z,0
2022-10-18T04:52:25.253Z,0
2022-10-18T04:53:41.755Z,0
2022-10-18T04:54:57.627Z,0
2022-10-18T04:56:13.831Z,0
2022-10-18T04:57:30.314Z,0
2022-10-18T04:58:46.509Z,0
2022-10-18T05:00:02.694Z,0
2022-10-18T05:01:18.573Z,0
2022-10-18T05:02:34.086Z,0
2022-10-18T05:03:49.954Z,0
2022-10-18T05:05:06.462Z,0
2022-10-18T05:06:22.641Z,0
2022-10-18T05:07:38.513Z,0
2022-10-18T05:08:54.699Z,0
2022-10-18T05:10:10.893Z,0
2022-10-18T05:11:27.380Z,0
2022-10-18T05:12:43.568Z,0
2022-10-18T05:13:59.764Z,0
2022-10-18T05:15:15.950Z,0
2022-10-18T05:16:31.827Z,0
2022-10-18T05:17:48.324Z,0
2022-10-18T05:19:03.534Z,0
2022-10-18T05:20:19.709Z,0
2022-10-18T05:21:35.911Z,0
2022-10-18T05:22:51.786Z,0
2022-10-18T05:24:07.978Z,0
2022-10-18T05:25:24.460Z,0
2022-10-18T05:26:40.645Z,0
2022-10-18T05:27:56.848Z,0
2022-10-18T05:29:12.712Z,0
2022-10-18T05:30:29.213Z,0
2022-10-18T05:31:45.405Z,0
2022-10-18T05:33:01.283Z,0
2022-10-18T05:34:17.474Z,0
2022-10-18T05:35:32.662Z,0
2022-10-18T05:36:49.160Z,0
2022-10-18T05:38:05.352Z,0
2022-10-18T05:39:21.535Z,0
2022-10-18T05:40:37.722Z,0
2022-10-18T05:41:53.919Z,0
2022-10-18T05:43:10.113Z,0
2022-10-18T05:44:25.985Z,0
2022-10-18T05:45:42.472Z,0
2022-10-18T05:46:58.343Z,0
2022-10-18T05:48:14.537Z,0
2022-10-18T05:49:31.042Z,0
2022-10-18T05:50:47.221Z,0
2022-10-18T05:52:02.431Z,0
2022-10-18T05:53:18.623Z,0
2022-10-18T05:54:34.482Z,0
2022-10-18T05:55:50.992Z,0
2022-10-18T05:57:07.188Z,0
2022-10-18T05:58:23.358Z,0
2022-10-18T05:59:39.493Z,0
2022-10-18T06:00:55.697Z,0
2022-10-18T06:02:11.868Z,0
2022-10-18T06:03:28.054Z,0
2022-10-18T06:04:44.241Z,0
2022-10-18T06:06:00.481Z,0
2022-10-18T06:07:16.000Z,0
2022-10-18T06:08:31.834Z,0
2022-10-18T06:09:48.021Z,0
2022-10-18T06:11:04.211Z,0
2022-10-18T06:12:20.451Z,0
2022-10-18T06:13:36.584Z,0
2022-10-18T06:14:52.812Z,0
2022-10-18T06:16:08.999Z,0
2022-10-18T06:17:25.192Z,0
2022-10-18T06:18:41.374Z,0
2022-10-18T06:19:57.559Z,0
2022-10-18T06:21:13.750Z,0
2022-10-18T06:22:29.942Z,0
2022-10-18T06:23:46.130Z,0
2022-10-18T06:25:01.338Z,0
2022-10-18T06:26:17.460Z,0
2022-10-18T06:27:33.712Z,0
2022-10-18T06:28:49.844Z,0
2022-10-18T06:30:06.073Z,0
2022-10-18T06:31:22.264Z,0
2022-10-18T06:32:38.454Z,0
2022-10-18T06:33:54.588Z,5
2022-10-18T06:35:10.780Z,5
2022-10-18T06:36:27.026Z,5
2022-10-18T06:37:43.195Z,5
2022-10-18T06:38:59.329Z,5
2022-10-18T06:40:15.516Z,5
2022-10-18T06:41:30.714Z,5
2022-10-18T06:42:46.965Z,5
2022-10-18T06:44:03.088Z,11
2022-10-18T06:45:19.352Z,11
2022-10-18T06:46:35.462Z,11
2022-10-18T06:47:51.653Z,11
2022-10-18T06:49:07.913Z,11
2022-10-18T06:50:24.102Z,11
2022-10-18T06:51:40.208Z,16
2022-10-18T06:52:56.468Z,16
2022-10-18T06:54:12.597Z,28
2022-10-18T06:55:28.772Z,33
2022-10-18T06:56:44.961Z,33
2022-10-18T06:58:00.237Z,33
2022-10-18T06:59:16.415Z,28
2022-10-18T07:00:32.540Z,22
2022-10-18T07:01:48.799Z,16
2022-10-18T07:03:04.918Z,11
2022-10-18T07:04:21.101Z,11
2022-10-18T07:05:37.365Z,11
2022-10-18T07:06:53.545Z,5
2022-10-18T07:08:09.671Z,5
2022-10-18T07:09:25.918Z,5
2022-10-18T07:10:42.037Z,5
2022-10-18T07:11:58.219Z,5
2022-10-18T07:13:14.423Z,11
2022-10-18T07:14:29.682Z,11
2022-10-18T07:15:45.877Z,11
2022-10-18T07:17:01.986Z,11
2022-10-18T07:18:18.172Z,16
2022-10-18T07:19:34.374Z,16
2022-10-18T07:20:50.612Z,16
2022-10-18T07:22:06.733Z,16
2022-10-18T07:23:22.995Z,22
2022-10-18T07:24:39.104Z,22
2022-10-18T07:25:55.307Z,28
2022-10-18T07:27:11.558Z,33
2022-10-18T07:28:27.743Z,39
2022-10-18T07:29:43.852Z,39
2022-10-18T07:30:59.126Z,33
2022-10-18T07:32:15.000Z,28
2022-10-18T07:33:31.439Z,28
2022-10-18T07:34:47.695Z,28
2022-10-18T07:36:03.877Z,28
2022-10-18T07:37:20.003Z,28
2022-10-18T07:38:36.250Z,22
2022-10-18T07:39:52.451Z,22
2022-10-18T07:41:08.625Z,28
2022-10-18T07:42:24.747Z,28
2022-10-18T07:43:41.010Z,33
2022-10-18T07:44:57.131Z,39
2022-10-18T07:46:13.381Z,45
2022-10-18T07:47:28.584Z,50
2022-10-18T07:48:44.689Z,50
2022-10-18T07:50:00.965Z,50
2022-10-18T07:51:17.153Z,50
2022-10-18T07:52:33.326Z,56
2022-10-18T07:53:49.530Z,56
2022-10-18T07:55:05.628Z,56
2022-10-18T07:56:21.812Z,45
2022-10-18T07:57:38.088Z,45
2022-10-18T07:58:54.194Z,39
2022-10-18T08:00:10.448Z,45
2022-10-18T08:01:26.640Z,45
2022-10-18T08:02:42.753Z,50
2022-10-18T08:03:57.960Z,56
2022-10-18T08:05:14.217Z,61
2022-10-18T08:06:30.403Z,61
2022-10-18T08:07:46.605Z,56
2022-10-18T08:09:02.793Z,50
2022-10-18T08:10:18.883Z,45
2022-10-18T08:11:34.101Z,45
2022-10-18T08:12:50.360Z,39
2022-10-18T08:14:06.556Z,39
2022-10-18T08:15:22.735Z,33
2022-10-18T08:16:38.924Z,33
2022-10-18T08:17:55.124Z,33
2022-10-18T08:19:11.223Z,33
2022-10-18T08:20:27.405Z,28
2022-10-18T08:21:43.591Z,28
2022-10-18T08:22:59.775Z,28
2022-10-18T08:24:16.051Z,28
2022-10-18T08:25:32.251Z,28
2022-10-18T08:26:48.343Z,28
2022-10-18T08:28:03.628Z,28
2022-10-18T08:29:19.813Z,28
2022-10-18T08:30:36.008Z,28
2022-10-18T08:31:52.103Z,28
2022-10-18T08:33:08.295Z,28
2022-10-18T08:34:24.489Z,28
2022-10-18T08:35:40.763Z,28
2022-10-18T08:36:56.936Z,28
2022-10-18T08:38:13.141Z,28
2022-10-18T08:39:29.241Z,28
2022-10-18T08:40:45.429Z,28
2022-10-18T08:42:01.696Z,28
2022-10-18T08:43:17.877Z,28
2022-10-18T08:44:33.074Z,28
2022-10-18T08:45:49.192Z,22
2022-10-18T08:47:05.454Z,22
2022-10-18T08:48:21.640Z,22
2022-10-18T08:49:37.752Z,22
2022-10-18T08:50:54.013Z,22
2022-10-18T08:52:10.201Z,22
2022-10-18T08:53:26.400Z,22
2022-10-18T08:54:42.485Z,28
2022-10-18T08:55:58.760Z,22
2022-10-18T08:57:14.960Z,22
2022-10-18T08:58:31.055Z,22
2022-10-18T08:59:47.233Z,22
2022-10-18T09:01:02.537Z,22
2022-10-18T09:02:18.626Z,22
2022-10-18T09:03:34.899Z,22
2022-10-18T09:04:51.000Z,22
2022-10-18T09:06:07.185Z,22
2022-10-18T09:07:23.468Z,16
2022-10-18T09:08:39.663Z,16
2022-10-18T09:09:55.849Z,16
2022-10-18T09:11:11.928Z,16
2022-10-18T09:12:28.123Z,16
2022-10-18T09:13:44.311Z,16
2022-10-18T09:15:00.509Z,16
2022-10-18T09:16:16.780Z,16
2022-10-18T09:17:31.994Z,16
2022-10-18T09:18:48.069Z,11
2022-10-18T09:20:04.260Z,11
2022-10-18T09:21:20.554Z,11
2022-10-18T09:22:36.745Z,11
2022-10-18T09:23:52.824Z,11
2022-10-18T09:25:09.109Z,11
2022-10-18T09:26:25.299Z,11
2022-10-18T09:27:41.487Z,11
2022-10-18T09:28:57.669Z,11
2022-10-18T09:30:13.865Z,11
2022-10-18T09:31:29.940Z,11
2022-10-18T09:32:46.225Z,11
2022-10-18T09:34:01.346Z,11
2022-10-18T09:35:17.522Z,11
2022-10-18T09:36:33.713Z,11
2022-10-18T09:37:49.999Z,16
2022-10-18T09:39:06.194Z,16
2022-10-18T09:40:22.282Z,11
2022-10-18T09:41:38.555Z,11
2022-10-18T09:42:54.652Z,11
2022-10-18T09:44:10.835Z,5
2022-10-18T09:45:27.021Z,5
2022-10-18T09:46:43.305Z,11
2022-10-18T09:47:59.502Z,22
2022-10-18T09:49:15.585Z,16
2022-10-18T09:50:30.776Z,11
2022-10-18T09:51:46.975Z,16
2022-10-18T09:53:03.254Z,16
2022-10-18T09:54:19.449Z,22
2022-10-18T09:55:35.645Z,22
2022-10-18T09:56:51.714Z,22
2022-10-18T09:58:07.913Z,22
2022-10-18T09:59:24.098Z,22
2022-10-18T10:00:40.289Z,22
2022-10-18T10:01:56.469Z,16
2022-10-18T10:03:12.770Z,16
2022-10-18T10:04:28.954Z,22
2022-10-18T10:05:45.021Z,22
2022-10-18T10:07:00.333Z,22
2022-10-18T10:08:16.533Z,28
2022-10-18T10:09:32.606Z,28
2022-10-18T10:10:48.907Z,22
2022-10-18T10:12:04.981Z,22
2022-10-18T10:13:21.168Z,22
2022-10-18T10:14:37.363Z,16
2022-10-18T10:15:53.649Z,16
2022-10-18T10:17:09.719Z,16
2022-10-18T10:18:26.013Z,22
2022-10-18T10:19:42.208Z,22
2022-10-18T10:20:58.278Z,22
2022-10-18T10:23:30.770Z,22
2022-10-18T10:24:45.856Z,16
2022-10-18T10:26:02.152Z,16
2022-10-18T10:27:18.249Z,11
2022-10-18T10:28:34.429Z,11
2022-10-18T10:29:50.605Z,11
2022-10-18T10:31:06.908Z,11
2022-10-18T10:32:23.107Z,11
2022-10-18T10:33:39.290Z,11
2022-10-18T10:34:55.364Z,11
2022-10-18T10:36:11.558Z,11
2022-10-18T10:37:27.850Z,16
2022-10-18T10:38:43.922Z,16
2022-10-18T10:40:00.108Z,16
2022-10-18T10:41:15.315Z,16
2022-10-18T10:42:31.493Z,16
2022-10-18T10:43:47.803Z,16
2022-10-18T10:45:03.984Z,16
2022-10-18T10:46:20.054Z,22
2022-10-18T10:47:36.249Z,22
2022-10-18T10:48:52.543Z,22
2022-10-18T10:50:08.630Z,22
2022-10-18T10:51:24.804Z,22
2022-10-18T10:52:40.989Z,28
2022-10-18T10:53:57.293Z,28
2022-10-18T10:55:13.478Z,28
2022-10-18T10:56:29.556Z,28
2022-10-18T10:57:44.873Z,33
2022-10-18T10:59:00.950Z,33
2022-10-18T11:00:17.137Z,39
2022-10-18T11:01:33.324Z,39
2022-10-18T11:02:49.506Z,45
2022-10-18T11:04:05.685Z,45
2022-10-18T11:05:21.890Z,45
2022-10-18T11:06:38.065Z,45
2022-10-18T11:07:54.246Z,45
2022-10-18T11:09:10.453Z,45
2022-10-18T11:10:26.633Z,39
2022-10-18T11:11:42.937Z,39
2022-10-18T11:12:58.996Z,39
2022-10-18T11:14:14.197Z,39
2022-10-18T11:15:30.401Z,45
2022-10-18T11:16:46.588Z,45
2022-10-18T11:18:02.773Z,45
2022-10-18T11:19:19.076Z,45
2022-10-18T11:20:35.275Z,45
2022-10-18T11:21:51.334Z,45
2022-10-18T11:23:07.640Z,45
2022-10-18T11:24:23.703Z,39
2022-10-18T11:25:39.882Z,39
2022-10-18T11:26:56.086Z,39
2022-10-18T11:28:12.258Z,45
2022-10-18T11:29:28.445Z,45
2022-10-18T11:30:43.653Z,45
2022-10-18T11:31:59.962Z,39
2022-10-18T11:33:16.144Z,39
2022-10-18T11:34:32.349Z,33
2022-10-18T11:35:48.524Z,39
2022-10-18T11:37:04.591Z,33
2022-10-18T11:38:20.784Z,28
2022-10-18T11:39:36.969Z,33
2022-10-18T11:40:53.159Z,45
2022-10-18T11:42:09.457Z,56
2022-10-18T11:43:25.523Z,67
2022-10-18T11:44:41.702Z,67
2022-10-18T11:45:57.890Z,56
2022-10-18T11:47:13.100Z,61
2022-10-18T11:48:29.416Z,56
2022-10-18T11:49:45.478Z,33
2022-10-18T11:51:01.671Z,33
2022-10-18T11:52:17.848Z,56
2022-10-18T11:53:34.045Z,56
2022-10-18T11:54:50.357Z,50
2022-10-18T11:56:06.402Z,39
2022-10-18T11:57:22.720Z,33
2022-10-18T11:58:38.777Z,28
2022-10-18T11:59:54.970Z,28
2022-10-18T12:01:11.150Z,28
2022-10-18T12:02:27.341Z,16
2022-10-18T12:03:42.543Z,16
2022-10-18T12:04:58.738Z,28
2022-10-18T12:06:14.922Z,39
2022-10-18T12:07:31.107Z,28
2022-10-18T12:08:47.305Z,28
2022-10-18T12:10:03.484Z,28
2022-10-18T12:11:19.664Z,22
2022-10-18T12:12:35.928Z,28
2022-10-18T12:13:52.123Z,33
2022-10-18T12:15:08.310Z,33
2022-10-18T12:16:24.478Z,39
2022-10-18T12:17:40.670Z,39
2022-10-18T12:18:56.863Z,45
2022-10-18T12:20:12.064Z,45
2022-10-18T12:21:28.243Z,50
2022-10-18T12:22:44.433Z,50
2022-10-18T12:24:00.619Z,50
2022-10-18T12:25:16.829Z,56
2022-10-18T12:26:32.015Z,56
2022-10-18T12:27:48.201Z,50
2022-10-18T12:29:04.389Z,45
2022-10-18T12:30:20.578Z,45
2022-10-18T12:31:36.779Z,39
2022-10-18T12:32:52.960Z,39
2022-10-18T12:34:09.148Z,45
2022-10-18T12:35:25.337Z,28
2022-10-18T12:36:41.523Z,28
2022-10-18T12:37:57.714Z,33
2022-10-18T12:39:13.897Z,33
2022-10-18T12:40:30.090Z,28
2022-10-18T12:41:46.267Z,33
2022-10-18T12:43:01.486Z,45
2022-10-18T12:44:17.651Z,45
2022-10-18T12:45:33.844Z,50
2022-10-18T12:46:50.035Z,50
2022-10-18T12:48:06.212Z,56
2022-10-18T12:49:22.405Z,39
2022-10-18T12:50:38.613Z,39
2022-10-18T12:51:54.787Z,45
2022-10-18T12:53:10.965Z,45
2022-10-18T12:54:27.160Z,39
2022-10-18T12:55:43.337Z,33
2022-10-18T12:56:59.534Z,28
2022-10-18T12:58:15.714Z,22
2022-10-18T12:59:30.921Z,22
2022-10-18T13:00:47.111Z,22
2022-10-18T13:02:03.299Z,22
2022-10-18T13:03:19.473Z,45
2022-10-18T13:04:35.682Z,33
2022-10-18T13:05:51.868Z,33
2022-10-18T13:07:08.044Z,45
2022-10-18T13:08:24.229Z,50
2022-10-18T13:09:40.422Z,67
2022-10-18T13:10:56.615Z,67
2022-10-18T13:12:12.779Z,73
2022-10-18T13:13:28.967Z,73
2022-10-18T13:14:45.171Z,84
2022-10-18T13:16:00.366Z,73
2022-10-18T13:17:16.583Z,95
2022-10-18T13:18:32.769Z,95
2022-10-18T13:19:48.916Z,67
2022-10-18T13:21:05.119Z,56
2022-10-18T13:22:21.295Z,56
2022-10-18T13:23:37.496Z,73
2022-10-18T13:24:53.671Z,50
2022-10-18T13:26:09.858Z,50
2022-10-18T13:27:26.056Z,33
2022-10-18T13:28:42.235Z,45
2022-10-18T13:29:58.415Z,50
2022-10-18T13:31:14.617Z,45
2022-10-18T13:32:29.808Z,67
2022-10-18T13:33:45.998Z,73
2022-10-18T13:35:02.179Z,84
2022-10-18T13:36:18.406Z,90
2022-10-18T13:37:34.570Z,95
2022-10-18T13:38:50.739Z,101
2022-10-18T13:40:06.933Z,73
2022-10-18T13:41:23.127Z,106
2022-10-18T13:42:39.337Z,90
2022-10-18T13:43:55.499Z,123
2022-10-18T13:45:11.677Z,101
2022-10-18T13:46:27.871Z,67
2022-10-18T13:47:44.062Z,67
2022-10-18T13:48:59.279Z,78
2022-10-18T13:50:15.455Z,73
2022-10-18T13:51:31.660Z,78
2022-10-18T13:52:47.857Z,84
2022-10-18T13:54:04.013Z,73
2022-10-18T13:55:20.222Z,112
2022-10-18T13:56:36.419Z,123
2022-10-18T13:59:08.760Z,174
2022-10-18T14:00:24.973Z,163
2022-10-18T14:01:41.122Z,140
2022-10-18T14:02:57.325Z,90
2022-10-18T14:04:13.528Z,73
2022-10-18T14:05:28.743Z,90
2022-10-18T14:06:44.934Z,101
2022-10-18T14:08:01.127Z,90
2022-10-18T14:09:17.269Z,78
2022-10-18T14:10:33.467Z,73
2022-10-18T14:11:49.683Z,78
2022-10-18T14:13:05.846Z,78
2022-10-18T14:14:22.065Z,101
2022-10-18T14:15:38.206Z,135
2022-10-18T14:16:54.412Z,106
2022-10-18T14:18:10.596Z,101
2022-10-18T14:19:26.788Z,185
2022-10-18T14:20:43.002Z,191
2022-10-18T14:21:58.212Z,185
2022-10-18T14:23:14.359Z,185
2022-10-18T14:24:30.547Z,151
2022-10-18T14:25:46.770Z,140
2022-10-18T14:27:02.964Z,123
2022-10-18T14:28:19.109Z,140
2022-10-18T14:29:35.340Z,84
2022-10-18T14:30:51.540Z,84
2022-10-18T14:32:07.692Z,95
2022-10-18T14:33:23.907Z,67
2022-10-18T14:34:40.098Z,78
2022-10-18T14:35:56.255Z,78
2022-10-18T14:37:12.480Z,56
2022-10-18T14:38:27.689Z,56
2022-10-18T14:39:43.841Z,61
2022-10-18T14:41:00.016Z,84
2022-10-18T14:42:16.252Z,90
2022-10-18T14:43:32.427Z,90
2022-10-18T14:44:48.584Z,90
2022-10-18T14:46:04.820Z,84
2022-10-18T14:47:20.963Z,67
2022-10-18T14:48:37.146Z,61
2022-10-18T14:49:53.371Z,56
2022-10-18T14:51:09.539Z,45
2022-10-18T14:52:25.764Z,39
2022-10-18T14:53:41.899Z,45
2022-10-18T14:54:57.116Z,50
2022-10-18T14:56:13.346Z,56
2022-10-18T14:57:29.532Z,45
2022-10-18T14:58:45.718Z,45
2022-10-18T15:00:01.902Z,50
2022-10-18T15:01:18.049Z,56
2022-10-18T15:02:34.237Z,56
2022-10-18T15:03:50.476Z,45
2022-10-18T15:05:06.672Z,39
2022-10-18T15:06:22.815Z,39
2022-10-18T15:07:39.031Z,39
2022-10-18T15:08:55.225Z,33
2022-10-18T15:10:11.381Z,33
2022-10-18T15:11:26.614Z,33
2022-10-18T15:12:42.805Z,33
2022-10-18T15:13:58.957Z,33
2022-10-18T15:15:15.142Z,33
2022-10-18T15:16:31.375Z,33
2022-10-18T15:17:47.528Z,33
2022-10-18T15:19:03.719Z,33
2022-10-18T15:20:19.953Z,33
2022-10-18T15:21:36.125Z,45
2022-10-18T15:22:52.315Z,50
2022-10-18T15:24:08.515Z,56
2022-10-18T15:25:24.645Z,45
2022-10-18T15:26:40.842Z,39
2022-10-18T15:27:56.037Z,22
2022-10-18T15:29:12.279Z,28
2022-10-18T15:30:28.421Z,22
2022-10-18T15:31:44.622Z,16
2022-10-18T15:33:00.799Z,11
2022-10-18T15:34:16.984Z,22
2022-10-18T15:35:33.224Z,16
2022-10-18T15:36:49.378Z,16
2022-10-18T15:38:05.000Z,11
2022-10-18T15:39:21.751Z,11
2022-10-18T15:40:37.930Z,11
2022-10-18T15:41:54.170Z,11
2022-10-18T15:43:10.356Z,11
2022-10-18T15:44:25.571Z,11
2022-10-18T15:45:41.748Z,11
2022-10-18T15:46:57.943Z,5
2022-10-18T15:48:14.084Z,5
2022-10-18T15:49:30.333Z,5
2022-10-18T15:50:46.517Z,5
2022-10-18T15:52:02.708Z,5
2022-10-18T15:53:18.830Z,5
2022-10-18T15:54:35.081Z,5
2022-10-18T15:55:51.204Z,5
2022-10-18T15:57:07.459Z,5
2022-10-18T15:58:23.646Z,0
2022-10-18T15:59:39.838Z,0
2022-10-18T16:00:55.043Z,0
2022-10-18T16:02:11.235Z,0
2022-10-18T16:03:27.413Z,0
2022-10-18T16:04:43.550Z,0
2022-10-18T16:05:59.746Z,0
2022-10-18T16:07:15.982Z,0
2022-10-18T16:08:32.179Z,0
2022-10-18T16:09:48.371Z,0
2022-10-18T16:11:04.494Z,0
2022-10-18T16:12:20.743Z,0
2022-10-18T16:13:36.924Z,0
2022-10-18T16:14:53.123Z,0
2022-10-18T16:16:09.251Z,0
2022-10-18T16:17:24.514Z,0
2022-10-18T16:18:40.644Z,0
2022-10-18T16:19:56.888Z,0
2022-10-18T16:21:13.080Z,0
2022-10-18T16:22:29.211Z,0
2022-10-18T16:23:45.405Z,0
2022-10-18T16:25:01.646Z,0
2022-10-18T16:26:17.782Z,0
2022-10-18T16:27:34.031Z,0
2022-10-18T16:28:50.220Z,0
2022-10-18T16:30:06.410Z,0
2022-10-18T16:31:22.540Z,0
2022-10-18T16:32:38.730Z,0
2022-10-18T16:33:53.931Z,0
2022-10-18T16:35:10.120Z,0
2022-10-18T16:36:26.379Z,0
2022-10-18T16:37:42.564Z,0
2022-10-18T16:38:58.744Z,0
2022-10-18T16:40:14.934Z,0
2022-10-18T16:41:30.075Z,0
2022-10-18T16:42:46.272Z,0
2022-10-18T16:44:02.527Z,0
2022-10-18T16:45:18.724Z,0
2022-10-18T16:46:34.909Z,0
2022-10-18T16:47:51.032Z,0
2022-10-18T16:49:07.227Z,0
2022-10-18T16:50:23.415Z,0
2022-10-18T16:51:39.670Z,0
2022-10-18T16:52:55.846Z,0
2022-10-18T16:54:12.048Z,0
2022-10-18T16:55:28.231Z,0
2022-10-18T16:56:44.358Z,0
2022-10-18T16:57:59.629Z,0
2022-10-18T16:59:15.811Z,0
2022-10-18T17:00:31.924Z,0
2022-10-18T17:01:48.196Z,0
2022-10-18T17:03:04.308Z,0
2022-10-18T17:04:20.491Z,0
2022-10-18T17:05:36.766Z,0
2022-10-18T17:06:52.875Z,0
2022-10-18T17:08:09.130Z,0
2022-10-18T17:09:25.265Z,0
2022-10-18T17:10:41.435Z,0
2022-10-18T17:11:57.633Z,0
2022-10-18T17:13:13.817Z,0
2022-10-18T17:14:29.029Z,0
2022-10-18T17:15:45.292Z,0
2022-10-18T17:17:01.402Z,0
2022-10-18T17:18:17.656Z,0
2022-10-18T17:19:33.772Z,0
2022-10-18T17:20:49.963Z,0
2022-10-18T17:22:06.155Z,0
2022-10-18T17:23:22.424Z,0
2022-10-18T17:24:38.616Z,0
2022-10-18T17:25:54.715Z,0
2022-10-18T17:27:10.918Z,0
2022-10-18T17:28:27.171Z,0
2022-10-18T17:29:43.283Z,0
2022-10-18T17:30:58.580Z,0
2022-10-18T17:32:14.765Z,0
2022-10-18T17:33:30.945Z,0
2022-10-18T17:34:47.072Z,0
2022-10-18T17:36:03.324Z,0
2022-10-18T17:37:19.515Z,0
2022-10-18T17:38:35.624Z,0
2022-10-18T17:39:51.901Z,0
2022-10-18T17:41:08.004Z,0
2022-10-18T17:42:24.193Z,0
2022-10-18T17:43:40.465Z,0
2022-10-18T17:44:56.576Z,0
2022-10-18T17:46:12.760Z,0
2022-10-18T17:47:27.957Z,0
2022-10-18T17:48:44.149Z,0
2022-10-18T17:50:00.345Z,0
2022-10-18T17:51:16.524Z,0
2022-10-18T17:52:32.724Z,0
2022-10-18T17:53:48.983Z,0
2022-10-18T17:55:05.182Z,0
2022-10-18T17:56:21.376Z,0
2022-10-18T17:57:37.474Z,0
2022-10-18T17:58:53.754Z,0
2022-10-18T18:00:09.856Z,0
2022-10-18T18:01:26.053Z,0
2022-10-18T18:02:42.310Z,0
2022-10-18T18:05:13.633Z,0
2022-10-18T18:06:29.908Z,0
2022-10-18T18:07:46.009Z,0
2022-10-18T18:09:02.275Z,0
2022-10-18T18:10:18.375Z,0
2022-10-18T18:11:34.662Z,0
2022-10-18T18:12:50.752Z,0
2022-10-18T18:14:07.031Z,0
2022-10-18T18:15:23.147Z,0
2022-10-18T18:16:39.316Z,0
2022-10-18T18:17:55.509Z,0
2022-10-18T18:19:11.699Z,0
2022-10-18T18:20:26.992Z,0
2022-10-18T18:21:43.181Z,0
2022-10-18T18:22:59.290Z,0
2022-10-18T18:24:15.483Z,0
2022-10-18T18:25:31.755Z,0
2022-10-18T18:26:47.851Z,0
2022-10-18T18:28:04.041Z,0